Time;durP1;ratioP1;P1;durP2;ratioP2;P2;SDS_P1;SDS_P2;PMS_P1;PMS_P2;Temp;Humidity;BMP_temperature;BMP_pressure;BME280_temperature;BME280_humidity;BME280_pressure;Samples;Min_cycle;Max_cycle;Signal;HPM_P1;HPM_P2
2022/09/13 00:01:33;;;;;;;;;;;;;;;21.13;57.87;100045.91;4976944;28;19924;-77
2022/09/13 00:03:59;;;;;;;;;;;;;;;21.14;57.18;100039.81;4977511;28;19936;-77
2022/09/13 00:06:24;;;;;;;;;;;;;;;21.09;57.36;100039.53;4959714;28;19918;-78
2022/09/13 00:08:51;;;;;;;;;;;;;;;21.09;57.19;100037.53;4976861;28;20009;-77
2022/09/13 00:11:18;;;;;;;;;;;;;;;21.05;57.53;100038.84;4959815;28;19928;-77
2022/09/13 00:13:44;;;;;;;;;;;;;;;21.03;57.32;100035.63;4977603;28;19955;-78
2022/09/13 00:16:10;;;;;;;;;;;;;;;21.00;56.96;100036.50;4959637;28;20026;-77
2022/09/13 00:18:36;;;;;;;;;;;;;;;21.00;56.10;100036.50;4960184;28;19925;-77
2022/09/13 00:21:05;;;;;;;;;;;;;;;20.98;55.35;100038.97;4959759;28;20279;-77
2022/09/13 00:23:31;;;;;;;;;;;;;;;20.95;55.20;100039.84;4977191;28;19918;-77
2022/09/13 00:26:03;;;;;;;;;;;;;;;20.94;54.97;100033.41;4960582;28;19940;-77
2022/09/13 00:28:28;;;;;;;;;;;;;;;20.90;54.74;100027.03;4959423;28;20026;-76
2022/09/13 00:30:58;;;;;;;;;;;;;;;20.89;54.46;100029.06;4976535;28;20318;-77
2022/09/13 00:33:23;;;;;;;;;;;;;;;20.89;54.67;100025.44;4959593;28;19992;-78
2022/09/13 00:35:49;;;;;;;;;;;;;;;20.88;54.65;100029.50;4977241;28;20001;-78
2022/09/13 00:38:14;;;;;;;;;;;;;;;20.87;54.53;100028.69;4959195;28;19925;-78
2022/09/13 00:40:40;;;;;;;;;;;;;;;21.00;53.86;100022.38;4976376;28;19929;-77
2022/09/13 00:43:11;;;;;;;;;;;;;;;21.03;53.60;100025.09;4959113;28;20424;-77
2022/09/13 00:45:37;;;;;;;;;;;;;;;21.11;53.38;100020.91;4976194;28;19918;-78
2022/09/13 00:48:05;;;;;;;;;;;;;;;21.15;52.54;100015.16;4958987;28;19922;-78
2022/09/13 00:50:30;;;;;;;;;;;;;;;21.14;51.59;100007.88;4976432;28;20008;-79
2022/09/13 00:52:58;;;;;;;;;;;;;;;21.18;51.48;100014.25;4976603;28;20403;-78
2022/09/13 00:55:31;;;;;;;;;;;;;;;21.16;50.97;100011.09;4958959;28;19925;-78
2022/09/13 00:57:59;;;;;;;;;;;;;;;21.11;51.33;100020.09;4958912;28;19925;-78
2022/09/13 01:00:25;;;;;;;;;;;;;;;21.08;51.23;100016.09;4958679;28;19918;-78
2022/09/13 01:02:53;;;;;;;;;;;;;;;21.02;50.92;100020.69;4959375;28;19964;-78
2022/09/13 01:05:19;;;;;;;;;;;;;;;21.01;51.97;100018.31;4958696;28;19964;-78
2022/09/13 01:07:45;;;;;;;;;;;;;;;21.02;51.62;100015.03;4959237;28;20392;-77
2022/09/13 01:10:10;;;;;;;;;;;;;;;21.09;50.40;100008.41;4959192;28;19918;-78
2022/09/13 01:12:52;;;;;;;;;;;;;;;21.04;50.53;100006.09;4958550;28;20477;-78
2022/09/13 01:15:17;;;;;;;;;;;;;;;20.97;50.71;100003.44;4975943;28;20007;-79
2022/09/13 01:17:43;;;;;;;;;;;;;;;20.96;50.57;100013.16;4976127;28;20402;-79
2022/09/13 01:20:09;;;;;;;;;;;;;;;20.91;50.42;100012.44;4958355;28;19918;-79
2022/09/13 01:22:35;;;;;;;;;;;;;;;20.91;50.77;100012.44;4958373;28;19965;-77
2022/09/13 01:25:19;;;;;;;;;;;;;;;20.90;50.61;100007.22;4975733;28;19918;-80
2022/09/13 01:27:44;;;;;;;;;;;;;;;20.90;49.88;100005.19;4975708;28;19922;-77
2022/09/13 01:30:12;;;;;;;;;;;;;;;20.95;50.35;100011.56;4976226;28;19925;-80
2022/09/13 01:32:37;;;;;;;;;;;;;;;20.93;50.19;100010.00;4975584;28;20373;-78
2022/09/13 01:35:29;;;;;;;;;;;;;;;20.94;50.06;100016.44;4958778;28;19969;-79
2022/09/13 01:38:06;;;;;;;;;;;;;;;20.95;49.58;100011.56;4952384;28;19925;-79
2022/09/13 01:40:43;;;;;;;;;;;;;;;20.95;49.21;100014.41;4955018;29;19922;-80
2022/09/13 01:43:18;;;;;;;;;;;;;;;20.89;49.62;100009.28;4955216;29;20370;-78
2022/09/13 01:45:47;;;;;;;;;;;;;;;20.81;49.58;100002.16;4955418;29;19923;-79
2022/09/13 01:48:30;;;;;;;;;;;;;;;20.82;49.59;100014.25;4956212;28;19970;-80
2022/09/13 01:51:02;;;;;;;;;;;;;;;20.77;49.78;100007.09;4954782;29;20009;-76
2022/09/13 01:53:33;;;;;;;;;;;;;;;20.76;49.26;100008.31;4956903;29;19923;-79
2022/09/13 01:56:10;;;;;;;;;;;;;;;20.77;49.15;100006.28;4955734;28;20382;-79
2022/09/13 01:59:02;;;;;;;;;;;;;;;20.76;48.66;100013.97;4955022;29;20389;-78
2022/09/13 02:01:30;;;;;;;;;;;;;;;20.78;48.40;100013.56;4951401;29;20341;-79
2022/09/13 02:04:03;;;;;;;;;;;;;;;20.76;48.81;100010.34;4956228;28;19923;-79
2022/09/13 02:06:33;;;;;;;;;;;;;;;20.80;49.32;100014.72;4955944;28;19918;-79
2022/09/13 02:09:07;;;;;;;;;;;;;;;20.81;48.71;100013.47;4955655;28;19919;-78
2022/09/13 02:11:34;;;;;;;;;;;;;;;20.82;49.17;100019.91;4955755;28;19926;-78
2022/09/13 02:13:59;;;;;;;;;;;;;;;20.81;49.87;100021.94;4959958;28;20026;-79
2022/09/13 02:16:28;;;;;;;;;;;;;;;20.71;50.36;100016.53;4958587;29;20360;-79
2022/09/13 02:18:57;;;;;;;;;;;;;;;20.73;50.72;100016.91;4974879;28;19930;-79
2022/09/13 02:21:26;;;;;;;;;;;;;;;20.71;51.27;100017.31;4959772;28;20404;-79
2022/09/13 02:23:53;;;;;;;;;;;;;;;20.69;51.50;100016.97;4959319;29;20269;-79
2022/09/13 02:26:20;;;;;;;;;;;;;;;20.63;51.05;100018.72;4958748;29;19919;-77
2022/09/13 02:28:52;;;;;;;;;;;;;;;20.54;50.72;100021.31;4960287;28;19919;-79
2022/09/13 02:31:37;;;;;;;;;;;;;;;20.49;51.56;100016.97;4960168;28;19966;-78
2022/09/13 02:34:06;;;;;;;;;;;;;;;20.46;51.58;100015.03;4959271;29;19922;-78
2022/09/13 02:36:35;;;;;;;;;;;;;;;20.37;52.24;100014.78;4959273;28;19925;-79
2022/09/13 02:39:02;;;;;;;;;;;;;;;20.37;52.20;100021.22;4962450;28;20012;-77
2022/09/13 02:41:35;;;;;;;;;;;;;;;20.38;52.31;100008.69;4961299;28;20395;-79
2022/09/13 02:44:05;;;;;;;;;;;;;;;20.30;52.36;100015.72;4979029;28;20053;-77
2022/09/13 02:46:49;;;;;;;;;;;;;;;20.29;53.03;100011.28;4961336;28;19918;-78
2022/09/13 02:49:23;;;;;;;;;;;;;;;20.29;52.94;100016.13;4961814;28;19918;-78
2022/09/13 02:51:59;;;;;;;;;;;;;;;20.33;53.54;100012.00;4978624;28;19922;-78
2022/09/13 02:54:28;;;;;;;;;;;;;;;20.37;53.39;100007.09;4961155;28;19925;-78
2022/09/13 02:56:58;;;;;;;;;;;;;;;20.40;53.37;100011.88;4978778;28;19922;-79
2022/09/13 02:59:23;;;;;;;;;;;;;;;20.42;53.56;100009.41;4978599;28;19922;-78
2022/09/13 03:01:51;;;;;;;;;;;;;;;20.44;53.73;100002.53;4961586;28;19941;-78
2022/09/13 03:04:17;;;;;;;;;;;;;;;20.45;53.21;99998.47;4978311;28;20270;-79
2022/09/13 03:06:43;;;;;;;;;;;;;;;20.45;53.76;100002.06;4978274;28;20016;-79
2022/09/13 03:09:08;;;;;;;;;;;;;;;20.40;54.38;99997.75;4961471;28;20408;-78
2022/09/13 03:11:40;;;;;;;;;;;;;;;20.37;53.89;100001.44;4961114;28;20361;-78
2022/09/13 03:14:11;;;;;;;;;;;;;;;20.35;54.18;100003.91;4961120;28;19922;-78
2022/09/13 03:16:36;;;;;;;;;;;;;;;20.30;54.38;99993.13;4978201;28;20049;-77
2022/09/13 03:19:20;;;;;;;;;;;;;;;20.15;55.26;99998.25;4978025;28;19966;-78
2022/09/13 03:21:48;;;;;;;;;;;;;;;20.05;55.86;99998.44;4961026;28;20012;-78
2022/09/13 03:24:16;;;;;;;;;;;;;;;20.10;56.34;100003.59;4977075;28;20020;-76
2022/09/13 03:26:54;;;;;;;;;;;;;;;20.15;56.30;100000.28;4961444;28;20432;-77
2022/09/13 03:29:24;;;;;;;;;;;;;;;20.10;56.75;100004.38;4977682;28;19925;-77
2022/09/13 03:31:52;;;;;;;;;;;;;;;20.09;55.95;99997.16;4961083;28;19925;-77
2022/09/13 03:34:20;;;;;;;;;;;;;;;20.09;55.23;99996.34;4977893;28;19918;-77
2022/09/13 03:36:54;;;;;;;;;;;;;;;20.05;55.42;99989.97;4960914;28;19965;-76
2022/09/13 03:39:28;;;;;;;;;;;;;;;19.96;54.86;99984.09;4977389;28;20005;-79
2022/09/13 03:41:58;;;;;;;;;;;;;;;19.94;55.06;99989.38;4960293;28;19918;-77
2022/09/13 03:44:25;;;;;;;;;;;;;;;19.91;55.23;99993.84;4977921;28;20030;-79
2022/09/13 03:46:56;;;;;;;;;;;;;;;19.99;54.31;99981.19;4960180;28;19918;-78
2022/09/13 03:49:24;;;;;;;;;;;;;;;19.91;55.00;99984.56;4960719;28;19918;-78
2022/09/13 03:51:51;;;;;;;;;;;;;;;19.75;55.07;99986.06;4977230;28;19957;-79
2022/09/13 03:54:19;;;;;;;;;;;;;;;19.89;54.56;99987.84;4960397;28;20329;-79
2022/09/13 03:57:04;;;;;;;;;;;;;;;19.68;55.58;99996.69;4960303;28;19980;-78
2022/09/13 03:59:29;;;;;;;;;;;;;;;19.52;57.40;99998.13;4959946;28;19965;-79
2022/09/13 04:01:54;;;;;;;;;;;;;;;19.47;57.48;99995.00;4959907;28;19918;-79
2022/09/13 04:04:20;;;;;;;;;;;;;;;19.42;57.40;99992.66;4960111;28;19945;-79
2022/09/13 04:06:45;;;;;;;;;;;;;;;19.48;57.66;99990.94;4960536;28;19942;-79
2022/09/13 04:09:10;;;;;;;;;;;;;;;19.46;57.08;99987.75;4977332;28;20360;-79
2022/09/13 04:11:36;;;;;;;;;;;;;;;19.44;57.17;99995.84;4977120;28;20020;-78
2022/09/13 04:14:02;;;;;;;;;;;;;;;19.40;56.10;99990.28;4959718;28;19969;-79
2022/09/13 04:16:27;;;;;;;;;;;;;;;19.40;55.95;99998.72;4959361;28;19925;-78
2022/09/13 04:18:53;;;;;;;;;;;;;;;19.38;56.13;99987.84;4976932;28;19918;-79
2022/09/13 04:21:18;;;;;;;;;;;;;;;19.50;55.78;99994.16;4977428;28;20273;-78
2022/09/13 04:23:48;;;;;;;;;;;;;;;19.45;54.51;99992.59;4959736;28;20254;-79
2022/09/13 04:26:13;;;;;;;;;;;;;;;19.48;55.26;99996.59;4976988;28;20012;-78
2022/09/13 04:28:41;;;;;;;;;;;;;;;19.48;54.99;99996.59;4959660;28;19961;-78
2022/09/13 04:31:06;;;;;;;;;;;;;;;19.52;55.38;100003.75;4976486;28;19925;-79
2022/09/13 04:33:32;;;;;;;;;;;;;;;19.52;55.13;99997.31;4976457;28;19922;-78
2022/09/13 04:35:58;;;;;;;;;;;;;;;19.46;55.19;99999.84;4975691;28;19924;-79
2022/09/13 04:38:24;;;;;;;;;;;;;;;19.38;56.35;99999.13;4958988;28;19969;-78
2022/09/13 04:40:56;;;;;;;;;;;;;;;19.23;57.24;99994.97;4955526;29;19922;-78
2022/09/13 04:43:22;;;;;;;;;;;;;;;19.15;57.57;100001.94;4956486;29;20312;-79
2022/09/13 04:45:47;;;;;;;;;;;;;;;19.15;58.33;100001.94;4956168;29;20032;-79
2022/09/13 04:48:12;;;;;;;;;;;;;;;19.24;56.79;99999.38;4956110;29;19962;-79
2022/09/13 04:50:37;;;;;;;;;;;;;;;19.23;57.61;100002.59;4957353;29;19946;-79
2022/09/13 04:53:03;;;;;;;;;;;;;;;19.06;58.12;99998.84;4956048;29;20008;-78
2022/09/13 04:55:28;;;;;;;;;;;;;;;19.02;58.63;99998.13;4956925;28;19981;-78
2022/09/13 04:57:55;;;;;;;;;;;;;;;19.54;58.39;99997.69;4956612;28;19918;-79
2022/09/13 05:00:20;;;;;;;;;;;;;;;20.30;53.95;99998.75;4955498;29;19988;-78
2022/09/13 05:02:46;;;;;;;;;;;;;;;21.01;52.93;99993.66;4955717;29;19997;-78
2022/09/13 05:05:11;;;;;;;;;;;;;;;21.75;51.48;99995.13;4955734;29;19918;-78
2022/09/13 05:07:36;;;;;;;;;;;;;;;22.41;48.94;99997.38;4955943;29;20369;-77
2022/09/13 05:10:02;;;;;;;;;;;;;;;23.08;46.82;100010.84;4955138;29;19925;-78
2022/09/13 05:12:27;;;;;;;;;;;;;;;23.59;45.33;100004.31;4957059;28;19966;-79
2022/09/13 05:14:52;;;;;;;;;;;;;;;24.09;43.95;100002.66;4956097;29;19926;-79
2022/09/13 05:17:18;;;;;;;;;;;;;;;24.75;42.83;100004.28;4956429;29;20381;-79
2022/09/13 05:19:43;;;;;;;;;;;;;;;25.40;41.25;100001.78;4955508;29;19922;-79
2022/09/13 05:22:08;;;;;;;;;;;;;;;26.01;39.48;100011.47;4956501;29;19965;-79
2022/09/13 05:24:34;;;;;;;;;;;;;;;26.58;38.67;100004.03;4956564;28;19957;-78
2022/09/13 05:26:59;;;;;;;;;;;;;;;27.04;36.73;100006.78;4956478;29;19918;-78
2022/09/13 05:29:24;;;;;;;;;;;;;;;27.39;35.37;100009.22;4955943;29;20017;-78
2022/09/13 05:31:50;;;;;;;;;;;;;;;27.97;35.35;100016.53;4956323;29;20378;-79
2022/09/13 05:34:19;;;;;;;;;;;;;;;28.17;33.84;100021.59;4955126;29;19974;-78
2022/09/13 05:36:46;;;;;;;;;;;;;;;28.35;33.19;100012.13;4956039;28;19919;-77
2022/09/13 05:39:12;;;;;;;;;;;;;;;28.67;33.12;100014.06;4954715;29;20013;-79
2022/09/13 05:41:38;;;;;;;;;;;;;;;29.02;32.13;100010.50;4956297;28;19923;-80
2022/09/13 05:44:03;;;;;;;;;;;;;;;29.34;32.11;100013.63;4956278;28;19918;-79
2022/09/13 05:46:28;;;;;;;;;;;;;;;29.19;32.60;100013.66;4955617;28;19923;-78
2022/09/13 05:48:56;;;;;;;;;;;;;;;29.86;31.92;100011.84;4956415;28;20329;-78
2022/09/13 05:51:21;;;;;;;;;;;;;;;30.18;31.24;100012.78;4956099;28;19935;-79
2022/09/13 05:53:48;;;;;;;;;;;;;;;30.37;30.73;100012.50;4956452;28;19919;-77
2022/09/13 05:56:15;;;;;;;;;;;;;;;30.50;30.92;100010.81;4956566;28;19919;-77
2022/09/13 05:58:42;;;;;;;;;;;;;;;30.95;29.90;100013.41;4956632;28;19925;-77
2022/09/13 06:01:08;;;;;;;;;;;;;;;31.41;28.26;100013.25;4955698;28;19924;-77
2022/09/13 06:03:35;;;;;;;;;;;;;;;31.33;29.41;100017.13;4956064;28;20293;-76
2022/09/13 06:06:00;;;;;;;;;;;;;;;31.27;28.98;100014.22;4955034;29;19919;-79
2022/09/13 06:08:26;;;;;;;;;;;;;;;31.46;28.44;100020.34;4955140;29;19966;-78
2022/09/13 06:11:02;;;;;;;;;;;;;;;30.78;30.30;100016.09;4954698;29;19918;-79
2022/09/13 06:13:28;;;;;;;;;;;;;;;31.11;29.22;100018.50;4955386;29;20334;-78
2022/09/13 06:15:54;;;;;;;;;;;;;;;30.93;30.07;100019.63;4954995;29;19950;-78
2022/09/13 06:18:20;;;;;;;;;;;;;;;30.29;32.12;100017.09;4955860;28;19919;-76
2022/09/13 06:20:45;;;;;;;;;;;;;;;30.38;32.01;100022.69;4954492;29;19925;-77
2022/09/13 06:23:11;;;;;;;;;;;;;;;30.52;31.23;100021.78;4955090;29;19918;-79
2022/09/13 06:25:36;;;;;;;;;;;;;;;30.35;29.24;100015.06;4954804;29;20344;-78
2022/09/13 06:28:02;;;;;;;;;;;;;;;30.95;28.44;100022.00;4955304;29;19918;-78
2022/09/13 06:30:27;;;;;;;;;;;;;;;31.11;28.77;100020.56;4954738;29;20370;-79
2022/09/13 06:32:54;;;;;;;;;;;;;;;31.04;28.71;100019.72;4954787;29;19992;-78
2022/09/13 06:35:20;;;;;;;;;;;;;;;31.21;28.51;100025.59;4955527;28;19919;-79
2022/09/13 06:37:45;;;;;;;;;;;;;;;31.08;28.34;100022.38;4954834;29;19918;-78
2022/09/13 06:40:11;;;;;;;;;;;;;;;31.56;28.25;100022.50;4953581;29;19926;-77
2022/09/13 06:42:36;;;;;;;;;;;;;;;31.08;29.92;100031.00;4954399;29;20021;-78
2022/09/13 06:45:02;;;;;;;;;;;;;;;31.32;29.05;100039.34;4955945;28;19922;-78
2022/09/13 06:47:27;;;;;;;;;;;;;;;31.73;28.24;100028.38;4955800;28;19918;-79
2022/09/13 06:49:52;;;;;;;;;;;;;;;31.18;28.43;100029.53;4955876;28;19929;-78
2022/09/13 06:52:18;;;;;;;;;;;;;;;30.99;27.45;100034.03;4955194;28;19925;-79
2022/09/13 06:54:43;;;;;;;;;;;;;;;30.87;27.78;100033.16;4955147;28;19922;-77
2022/09/13 06:57:08;;;;;;;;;;;;;;;30.65;28.25;100042.28;4955468;28;20259;-79
2022/09/13 06:59:34;;;;;;;;;;;;;;;30.90;28.12;100037.09;4955917;28;19918;-77
2022/09/13 07:01:59;;;;;;;;;;;;;;;30.92;29.54;100041.03;4957704;29;19948;-78
2022/09/13 07:04:24;;;;;;;;;;;;;;;31.14;28.53;100040.44;4958419;29;19919;-76
2022/09/13 07:06:50;;;;;;;;;;;;;;;30.54;29.38;100045.06;4958855;28;20017;-79
2022/09/13 07:09:17;;;;;;;;;;;;;;;30.35;30.00;100038.03;4957928;29;19919;-77
2022/09/13 07:11:42;;;;;;;;;;;;;;;30.57;29.57;100041.16;4957714;29;19957;-78
2022/09/13 07:14:11;;;;;;;;;;;;;;;31.16;28.84;100037.88;4957664;29;19949;-78
2022/09/13 07:16:37;;;;;;;;;;;;;;;31.39;28.88;100038.06;4958877;28;19918;-77
2022/09/13 07:19:04;;;;;;;;;;;;;;;31.27;27.67;100049.50;4957499;29;19923;-77
2022/09/13 07:21:30;;;;;;;;;;;;;;;31.39;26.56;100046.69;4959662;28;19918;-79
2022/09/13 07:23:56;;;;;;;;;;;;;;;30.89;27.59;100049.88;4957785;29;20226;-78
2022/09/13 07:26:22;;;;;;;;;;;;;;;31.46;27.45;100044.13;4959267;28;20045;-78
2022/09/13 07:28:48;;;;;;;;;;;;;;;31.97;27.51;100047.38;4959025;28;19970;-78
2022/09/13 07:31:15;;;;;;;;;;;;;;;32.23;26.50;100042.25;4958358;28;20394;-78
2022/09/13 07:33:41;;;;;;;;;;;;;;;32.43;26.93;100043.41;4958207;28;19919;-78
2022/09/13 07:36:06;;;;;;;;;;;;;;;32.50;25.77;100048.66;4958456;28;19918;-79
2022/09/13 07:38:33;;;;;;;;;;;;;;;32.65;26.02;100054.19;4958241;28;19918;-76
2022/09/13 07:40:59;;;;;;;;;;;;;;;31.72;26.69;100052.69;4977086;28;19923;-77
2022/09/13 07:43:25;;;;;;;;;;;;;;;31.98;26.85;100051.81;4960301;28;19918;-78
2022/09/13 07:45:57;;;;;;;;;;;;;;;31.96;27.03;100058.09;4977488;28;19926;-77
2022/09/13 07:48:23;;;;;;;;;;;;;;;31.93;26.60;100058.31;4977411;28;19977;-79
2022/09/13 07:50:55;;;;;;;;;;;;;;;31.71;27.12;100065.50;4960115;28;19920;-78
2022/09/13 07:53:21;;;;;;;;;;;;;;;32.68;26.36;100059.72;4977136;28;19924;-78
2022/09/13 07:55:46;;;;;;;;;;;;;;;31.86;26.78;100062.47;4960078;28;19918;-78
2022/09/13 07:58:12;;;;;;;;;;;;;;;33.55;25.39;100066.63;4977420;28;20016;-77
2022/09/13 08:00:37;;;;;;;;;;;;;;;32.43;25.91;100072.19;4977292;28;19918;-77
2022/09/13 08:03:03;;;;;;;;;;;;;;;31.59;26.86;100074.53;4959873;28;19926;-78
2022/09/13 08:05:28;;;;;;;;;;;;;;;31.17;26.79;100068.19;4977216;28;19925;-78
2022/09/13 08:07:53;;;;;;;;;;;;;;;32.56;25.69;100067.53;4976911;28;20016;-78
2022/09/13 08:10:19;;;;;;;;;;;;;;;32.50;25.43;100075.38;4959516;28;19968;-78
2022/09/13 08:12:44;;;;;;;;;;;;;;;33.45;24.81;100073.97;4959546;28;19926;-78
2022/09/13 08:15:09;;;;;;;;;;;;;;;33.09;24.07;100070.81;4977210;28;19918;-76
2022/09/13 08:17:35;;;;;;;;;;;;;;;32.57;24.67;100071.97;4959698;28;19918;-76
2022/09/13 08:20:00;;;;;;;;;;;;;;;32.46;25.89;100071.16;4960036;28;19965;-77
2022/09/13 08:22:25;;;;;;;;;;;;;;;32.63;26.15;100072.00;4959362;28;20333;-78
2022/09/13 08:24:51;;;;;;;;;;;;;;;32.29;26.48;100076.81;4977309;28;19919;-77
2022/09/13 08:27:16;;;;;;;;;;;;;;;32.31;26.63;100074.22;4959466;28;19964;-78
2022/09/13 08:29:41;;;;;;;;;;;;;;;33.00;25.56;100074.72;4976455;28;20404;-78
2022/09/13 08:32:07;;;;;;;;;;;;;;;32.31;26.03;100083.63;4976773;28;19918;-79
2022/09/13 08:34:32;;;;;;;;;;;;;;;33.24;25.41;100084.97;4976912;28;19997;-80
2022/09/13 08:36:57;;;;;;;;;;;;;;;33.90;24.89;100080.50;4977348;28;20316;-78
2022/09/13 08:39:22;;;;;;;;;;;;;;;34.24;24.33;100078.31;4955890;29;19926;-75
2022/09/13 08:42:02;;;;;;;;;;;;;;;34.43;24.25;100083.50;4956301;29;19961;-79
2022/09/13 08:44:57;;;;;;;;;;;;;;;34.56;24.31;100086.59;4957510;28;19922;-77
2022/09/13 08:47:22;;;;;;;;;;;;;;;34.49;24.66;100101.63;4943068;29;19925;-78
2022/09/13 08:49:50;;;;;;;;;;;;;;;35.27;23.38;100094.63;4957318;29;19918;-78
2022/09/13 08:52:23;;;;;;;;;;;;;;;35.72;22.60;100089.25;4957084;28;19918;-78
2022/09/13 08:54:49;;;;;;;;;;;;;;;36.27;21.90;100092.88;4955839;29;19926;-78
2022/09/13 08:57:14;;;;;;;;;;;;;;;36.33;22.62;100087.81;4956332;29;19925;-78
2022/09/13 08:59:50;;;;;;;;;;;;;;;36.60;22.16;100093.81;4956922;29;20286;-80
2022/09/13 09:02:34;;;;;;;;;;;;;;;37.01;21.74;100089.84;4956869;28;20412;-79
2022/09/13 09:05:12;;;;;;;;;;;;;;;36.92;21.87;100094.72;4956834;29;19926;-79
2022/09/13 09:07:57;;;;;;;;;;;;;;;36.72;22.27;100093.13;4955913;29;19918;-78
2022/09/13 09:10:26;;;;;;;;;;;;;;;36.89;22.00;100084.19;4957066;28;19968;-78
2022/09/13 09:12:54;;;;;;;;;;;;;;;37.07;21.78;100090.53;4956732;28;19918;-77
2022/09/13 09:15:29;;;;;;;;;;;;;;;35.92;22.51;100088.78;4956052;29;19918;-77
2022/09/13 09:18:09;;;;;;;;;;;;;;;35.63;23.11;100083.78;4956707;28;19926;-79
2022/09/13 09:20:35;;;;;;;;;;;;;;;34.59;24.30;100085.56;4956314;29;19926;-79
2022/09/13 09:23:03;;;;;;;;;;;;;;;34.70;23.88;100078.94;4956703;28;20278;-76
2022/09/13 09:25:30;;;;;;;;;;;;;;;34.58;24.92;100086.88;4956851;28;19919;-78
2022/09/13 09:27:57;;;;;;;;;;;;;;;33.81;25.64;100080.75;4956547;28;19919;-78
2022/09/13 09:30:22;;;;;;;;;;;;;;;33.62;25.83;100086.31;4955132;29;19941;-79
2022/09/13 09:33:07;;;;;;;;;;;;;;;33.24;26.62;100082.88;4955253;29;19919;-78
2022/09/13 09:35:42;;;;;;;;;;;;;;;32.34;27.51;100082.59;4944401;29;20025;-79
2022/09/13 09:38:20;;;;;;;;;;;;;;;32.05;28.02;100092.38;4955320;29;19925;-77
2022/09/13 09:40:45;;;;;;;;;;;;;;;32.70;27.21;100077.25;4973092;28;19922;-77
2022/09/13 09:43:14;;;;;;;;;;;;;;;33.38;26.40;100087.59;4958029;28;20288;-79
2022/09/13 09:45:41;;;;;;;;;;;;;;;33.45;26.39;100082.63;4957880;28;19969;-78
2022/09/13 09:48:11;;;;;;;;;;;;;;;34.57;25.59;100085.28;4975138;28;19965;-80
2022/09/13 09:50:41;;;;;;;;;;;;;;;33.77;25.55;100078.16;4975460;28;20010;-77
2022/09/13 09:53:13;;;;;;;;;;;;;;;33.14;26.50;100084.44;4958489;28;19919;-80
2022/09/13 09:55:47;;;;;;;;;;;;;;;32.65;27.13;100077.22;4957994;28;19918;-77
2022/09/13 09:58:17;;;;;;;;;;;;;;;32.40;27.52;100073.25;4975634;28;20261;-77
2022/09/13 10:01:09;;;;;;;;;;;;;;;33.01;26.59;100076.28;4957882;28;19922;-78
2022/09/13 10:03:34;;;;;;;;;;;;;;;32.57;26.79;100065.44;4972372;28;19919;-77
2022/09/13 10:06:06;;;;;;;;;;;;;;;33.40;25.99;100077.63;4958528;28;19926;-77
2022/09/13 10:08:36;;;;;;;;;;;;;;;33.97;25.13;100079.19;4975297;28;19918;-77
2022/09/13 10:11:02;;;;;;;;;;;;;;;34.66;24.26;100079.19;4958361;28;20281;-79
2022/09/13 10:13:28;;;;;;;;;;;;;;;34.86;23.93;100072.25;4958157;28;19918;-77
2022/09/13 10:15:58;;;;;;;;;;;;;;;34.16;24.63;100068.66;4975372;28;19977;-75
2022/09/13 10:18:26;;;;;;;;;;;;;;;32.69;26.23;100064.16;4958102;28;20366;-78
2022/09/13 10:21:02;;;;;;;;;;;;;;;33.40;25.68;100066.09;4958176;28;20016;-76
2022/09/13 10:23:27;;;;;;;;;;;;;;;34.28;25.02;100066.50;4957961;28;20381;-78
2022/09/13 10:26:01;;;;;;;;;;;;;;;33.97;25.33;100067.66;4974699;28;19953;-78
2022/09/13 10:28:28;;;;;;;;;;;;;;;33.36;26.55;100067.16;4958142;28;20305;-77
2022/09/13 10:31:00;;;;;;;;;;;;;;;32.13;29.93;100055.31;4957473;28;19922;-79
2022/09/13 10:33:27;;;;;;;;;;;;;;;32.51;29.66;100050.25;4956886;28;19925;-77
2022/09/13 10:35:54;;;;;;;;;;;;;;;32.07;30.81;100049.53;4961639;28;19945;-78
2022/09/13 10:38:25;;;;;;;;;;;;;;;33.14;29.81;100049.06;4978644;28;19925;-77
2022/09/13 10:40:51;;;;;;;;;;;;;;;32.88;28.84;100044.31;4956561;29;19923;-78
2022/09/13 10:43:18;;;;;;;;;;;;;;;32.85;29.61;100046.13;4958437;29;19922;-76
2022/09/13 10:45:47;;;;;;;;;;;;;;;33.89;27.84;100045.09;4958706;28;19923;-74
2022/09/13 10:48:14;;;;;;;;;;;;;;;33.35;29.76;100051.19;4957746;28;19983;-78
2022/09/13 10:50:40;;;;;;;;;;;;;;;33.01;29.96;100041.72;4958887;28;20013;-78
2022/09/13 10:53:25;;;;;;;;;;;;;;;33.15;30.18;100039.91;4957848;28;19965;-76
2022/09/13 10:55:54;;;;;;;;;;;;;;;33.79;29.40;100046.69;4956321;29;19942;-77
2022/09/13 10:58:19;;;;;;;;;;;;;;;34.05;30.50;100048.47;4956822;29;19919;-77
2022/09/13 11:01:04;;;;;;;;;;;;;;;34.26;30.39;100049.72;4957227;29;19919;-78
2022/09/13 11:03:29;;;;;;;;;;;;;;;33.74;31.07;100043.81;4956872;29;19918;-77
2022/09/13 11:06:01;;;;;;;;;;;;;;;33.20;32.02;100041.22;4956491;29;20386;-76
2022/09/13 11:08:33;;;;;;;;;;;;;;;33.11;32.66;100040.16;4957252;29;19918;-80
2022/09/13 11:11:07;;;;;;;;;;;;;;;32.61;33.12;100039.28;4957831;28;20444;-78
2022/09/13 11:13:51;;;;;;;;;;;;;;;32.85;32.67;100046.13;4957000;29;19928;-76
2022/09/13 11:16:20;;;;;;;;;;;;;;;32.67;33.75;100040.84;4956366;29;19925;-77
2022/09/13 11:19:04;;;;;;;;;;;;;;;32.28;34.40;100043.56;4956371;29;19934;-78
2022/09/13 11:21:29;;;;;;;;;;;;;;;32.02;34.47;100038.75;4956275;29;20420;-77
2022/09/13 11:23:54;;;;;;;;;;;;;;;32.43;33.85;100032.66;4956589;29;20021;-78
2022/09/13 11:26:23;;;;;;;;;;;;;;;32.48;33.35;100031.91;4958091;28;19918;-77
2022/09/13 11:28:51;;;;;;;;;;;;;;;32.42;33.77;100031.09;4956643;29;20369;-76
2022/09/13 11:31:22;;;;;;;;;;;;;;;32.99;33.55;100040.69;4958807;29;20029;-77
2022/09/13 11:34:00;;;;;;;;;;;;;;;33.44;32.71;100037.81;4955894;29;20325;-75
2022/09/13 11:36:26;;;;;;;;;;;;;;;32.40;34.35;100038.69;4956813;29;20298;-76
2022/09/13 11:38:54;;;;;;;;;;;;;;;31.95;34.87;100032.69;4889800;28;1974685;-76
2022/09/13 11:41:28;;;;;;;;;;;;;;;32.72;33.19;100031.44;4962246;28;19929;-76
2022/09/13 11:44:13;;;;;;;;;;;;;;;32.73;33.75;100032.22;4960235;28;20365;-77
2022/09/13 11:46:57;;;;;;;;;;;;;;;32.40;34.70;100018.53;4959676;28;19918;-77
2022/09/13 11:49:41;;;;;;;;;;;;;;;32.75;34.14;100018.88;4959781;28;19918;-77
2022/09/13 11:52:06;;;;;;;;;;;;;;;32.73;34.16;100021.50;4959725;28;19953;-80
2022/09/13 11:54:48;;;;;;;;;;;;;;;32.14;35.31;100016.56;4960233;28;19918;-76
2022/09/13 11:57:18;;;;;;;;;;;;;;;32.35;34.02;100020.09;4977862;28;19918;-77
2022/09/13 11:59:59;;;;;;;;;;;;;;;32.21;34.41;100016.06;4959563;28;20024;-76
2022/09/13 12:02:34;;;;;;;;;;;;;;;32.39;33.97;100014.88;4959602;28;20004;-76
2022/09/13 12:08:08;;;;;;;;;;;;;;;32.18;35.17;100004.81;4940625;28;19918;-77
2022/09/13 12:10:49;;;;;;;;;;;;;;;32.28;35.31;99992.56;4977081;28;19968;-78
2022/09/13 12:13:21;;;;;;;;;;;;;;;32.46;34.96;99997.09;4977448;28;20369;-80
2022/09/13 12:15:48;;;;;;;;;;;;;;;32.38;34.06;99995.22;4960427;28;19919;-78
2022/09/13 12:18:18;;;;;;;;;;;;;;;32.13;35.02;99991.19;4959189;28;19923;-78
2022/09/13 12:20:48;;;;;;;;;;;;;;;31.46;36.32;99980.09;4976710;28;20021;-77
2022/09/13 12:23:18;;;;;;;;;;;;;;;31.06;36.79;99990.50;4976877;28;19918;-79
2022/09/13 12:26:10;;;;;;;;;;;;;;;31.72;35.90;99995.16;4959820;28;19922;-79
2022/09/13 12:28:41;;;;;;;;;;;;;;;31.58;35.71;99986.69;4953975;28;19918;-78
2022/09/13 12:31:10;;;;;;;;;;;;;;;31.46;35.86;99986.63;4958943;28;19918;-76
2022/09/13 12:33:44;;;;;;;;;;;;;;;30.86;37.55;99997.13;4959092;28;19957;-76
2022/09/13 12:36:16;;;;;;;;;;;;;;;30.89;36.97;100001.03;4958838;28;19918;-77
2022/09/13 12:38:54;;;;;;;;;;;;;;;30.68;37.62;99989.63;4958223;28;19980;-77
2022/09/13 12:41:20;;;;;;;;;;;;;;;30.52;38.11;99982.41;4958525;28;19953;-77
2022/09/13 12:43:48;;;;;;;;;;;;;;;30.75;37.57;99992.06;4958913;28;19918;-75
2022/09/13 12:46:22;;;;;;;;;;;;;;;30.38;38.92;99991.13;4958665;28;19922;-77
2022/09/13 12:49:07;;;;;;;;;;;;;;;30.98;38.23;99993.03;4976404;28;19952;-75
2022/09/13 12:51:47;;;;;;;;;;;;;;;30.59;38.96;99984.03;4958730;28;19918;-76